Time;durP1;ratioP1;P1;durP2;ratioP2;P2;SDS_P1;SDS_P2;PMS_P1;PMS_P2;Temp;Humidity;BMP_temperature;BMP_pressure;BME280_temperature;BME280_humidity;BME280_pressure;Samples;Min_cycle;Max_cycle;Signal;HPM_P1;HPM_P2
2022/01/06 00:01:46;;;;;;;11.77;3.00;;;2.40;99.90;;;;;;4970650;28;20441;-74
2022/01/06 00:04:12;;;;;;;10.63;3.45;;;2.30;99.90;;;;;;4972449;28;20034;-73
2022/01/06 00:06:41;;;;;;;9.18;2.90;;;2.30;99.90;;;;;;4971560;28;20610;-73
2022/01/06 00:09:09;;;;;;;13.10;3.03;;;2.30;99.90;;;;;;4972374;28;20109;-73
2022/01/06 00:11:35;;;;;;;7.82;2.67;;;2.30;99.90;;;;;;4971738;28;20031;-73
2022/01/06 00:14:14;;;;;;;13.98;2.80;;;2.30;99.90;;;;;;4971641;28;20496;-73
2022/01/06 00:24:21;;;;;;;10.98;2.67;;;2.50;99.90;;;;;;4970987;28;20562;-72
2022/01/06 00:26:48;;;;;;;8.70;2.78;;;2.40;99.90;;;;;;4972131;28;20479;-73
2022/01/06 00:29:15;;;;;;;11.40;3.05;;;2.40;99.90;;;;;;4971521;28;20061;-73
2022/01/06 00:31:41;;;;;;;11.70;3.03;;;2.40;99.90;;;;;;4971548;28;20118;-72
2022/01/06 00:34:10;;;;;;;15.85;2.80;;;2.40;99.90;;;;;;4970226;28;20048;-72
2022/01/06 00:36:37;;;;;;;13.05;2.85;;;2.40;99.90;;;;;;4968303;28;20093;-72
2022/01/06 00:39:03;;;;;;;12.25;3.00;;;2.40;99.90;;;;;;4973013;28;20043;-72
2022/01/06 00:41:31;;;;;;;8.57;2.70;;;2.40;99.90;;;;;;4972521;28;20034;-72
2022/01/06 00:43:57;;;;;;;8.77;3.00;;;2.40;99.90;;;;;;4972870;28;20404;-72
2022/01/06 00:46:22;;;;;;;8.85;2.50;;;2.50;99.90;;;;;;4972344;28;20039;-72
2022/01/06 00:48:48;;;;;;;9.40;2.80;;;2.50;99.90;;;;;;4973194;28;20098;-72
2022/01/06 00:51:13;;;;;;;11.40;3.53;;;2.50;99.90;;;;;;4972399;28;20026;-72
2022/01/06 00:53:39;;;;;;;11.25;3.15;;;2.50;99.90;;;;;;4972042;28;20061;-72
2022/01/06 00:56:05;;;;;;;13.10;2.80;;;2.50;99.90;;;;;;4972487;28;20539;-72
2022/01/06 00:58:30;;;;;;;12.10;3.33;;;2.40;99.90;;;;;;4971860;28;20027;-72
2022/01/06 01:00:57;;;;;;;7.63;2.58;;;2.40;99.90;;;;;;4968857;28;20066;-72
2022/01/06 01:03:23;;;;;;;9.85;2.72;;;2.40;99.90;;;;;;4953555;29;20063;-71
2022/01/06 01:05:51;;;;;;;13.90;3.22;;;2.40;99.90;;;;;;4976942;28;20037;-71
2022/01/06 01:08:17;;;;;;;7.20;2.63;;;2.40;99.90;;;;;;4972647;28;20089;-70
2022/01/06 01:10:44;;;;;;;9.07;3.90;;;2.30;99.90;;;;;;4972377;28;20053;-71
2022/01/06 01:13:12;;;;;;;11.80;2.72;;;2.30;99.90;;;;;;4972233;28;20461;-70
2022/01/06 01:15:45;;;;;;;11.00;3.05;;;2.30;99.90;;;;;;4971799;28;20047;-71
2022/01/06 01:18:13;;;;;;;16.38;2.92;;;2.30;99.90;;;;;;4972581;28;20038;-71
2022/01/06 01:20:39;;;;;;;8.45;3.00;;;2.40;99.90;;;;;;4971795;28;20607;-72
2022/01/06 01:23:05;;;;;;;9.90;3.10;;;2.30;99.90;;;;;;4955189;28;20030;-70
2022/01/06 01:25:31;;;;;;;12.13;3.45;;;2.40;99.90;;;;;;4971858;28;20107;-71
2022/01/06 01:27:57;;;;;;;12.82;3.90;;;2.30;99.90;;;;;;4972868;28;20055;-72
2022/01/06 01:30:30;;;;;;;15.57;2.78;;;2.30;99.90;;;;;;4971328;28;20097;-71
2022/01/06 01:32:57;;;;;;;10.68;2.88;;;2.40;99.90;;;;;;4972857;28;20126;-71
2022/01/06 01:35:24;;;;;;;14.93;2.92;;;2.40;99.90;;;;;;4983168;28;20034;-70
2022/01/06 01:37:49;;;;;;;11.15;2.63;;;2.40;99.90;;;;;;4991734;28;20031;-71
2022/01/06 01:40:15;;;;;;;11.02;3.70;;;2.40;99.90;;;;;;4976999;28;20027;-70
2022/01/06 01:42:41;;;;;;;7.30;3.10;;;2.50;99.90;;;;;;4971377;28;20066;-71
2022/01/06 01:45:08;;;;;;;14.30;2.83;;;2.50;99.90;;;;;;4972051;28;20030;-70
2022/01/06 01:47:44;;;;;;;9.38;3.15;;;2.40;99.90;;;;;;4971931;28;20524;-71
2022/01/06 01:50:16;;;;;;;7.05;2.72;;;2.40;99.90;;;;;;4977153;28;20458;-71
2022/01/06 01:52:48;;;;;;;11.45;3.15;;;2.40;99.90;;;;;;4976696;28;20114;-72
2022/01/06 01:55:20;;;;;;;14.68;3.33;;;2.40;99.90;;;;;;4976252;28;20038;-71
2022/01/06 01:57:46;;;;;;;14.25;3.17;;;2.40;99.90;;;;;;4975948;28;20031;-72
2022/01/06 02:00:13;;;;;;;11.98;3.70;;;2.40;99.90;;;;;;4975614;28;20044;-71
2022/01/06 02:02:39;;;;;;;11.02;3.20;;;2.30;99.90;;;;;;4975354;28;20052;-71
2022/01/06 02:05:06;;;;;;;7.68;2.97;;;2.20;99.90;;;;;;4976016;28;20031;-72
2022/01/06 02:07:37;;;;;;;12.65;3.38;;;2.20;99.90;;;;;;4974795;28;20028;-71
2022/01/06 02:10:06;;;;;;;10.75;2.78;;;2.20;99.90;;;;;;4975986;28;20027;-72
2022/01/06 02:12:36;;;;;;;12.80;3.63;;;2.20;99.90;;;;;;4974242;28;20482;-71
2022/01/06 02:15:04;;;;;;;10.75;3.10;;;2.20;99.90;;;;;;4959325;28;20055;-71
2022/01/06 02:17:30;;;;;;;8.25;2.88;;;2.20;99.90;;;;;;4955329;29;20035;-71
2022/01/06 02:19:57;;;;;;;11.95;3.38;;;2.20;99.90;;;;;;4956702;29;20047;-71
2022/01/06 02:22:24;;;;;;;9.02;3.03;;;2.20;99.90;;;;;;4955298;29;20043;-71
2022/01/06 02:24:50;;;;;;;10.13;3.30;;;2.20;99.90;;;;;;4956284;29;20124;-71
2022/01/06 02:27:20;;;;;;;12.50;2.92;;;2.20;99.90;;;;;;4954973;29;20114;-72
2022/01/06 02:29:49;;;;;;;10.05;2.90;;;2.20;99.90;;;;;;4956005;29;20075;-71
2022/01/06 02:32:17;;;;;;;11.90;3.15;;;2.30;99.90;;;;;;4956205;29;20063;-71
2022/01/06 02:34:47;;;;;;;13.25;3.58;;;2.20;99.90;;;;;;4955335;29;20075;-71
2022/01/06 02:37:14;;;;;;;9.27;3.85;;;2.20;99.90;;;;;;4954833;29;20389;-71
2022/01/06 02:39:43;;;;;;;7.65;3.53;;;2.20;99.90;;;;;;4954648;29;20051;-71
2022/01/06 02:42:11;;;;;;;11.15;3.25;;;2.20;99.90;;;;;;4955383;29;20031;-71
2022/01/06 02:44:38;;;;;;;8.15;2.80;;;2.20;99.90;;;;;;4955075;29;20106;-70
2022/01/06 02:47:05;;;;;;;8.18;2.85;;;2.20;99.90;;;;;;4955663;29;20046;-71
2022/01/06 02:49:31;;;;;;;11.20;3.13;;;2.30;99.90;;;;;;4954955;29;20027;-71
2022/01/06 02:51:57;;;;;;;8.75;2.95;;;2.30;99.90;;;;;;4955861;29;20074;-71
2022/01/06 02:54:23;;;;;;;7.45;2.97;;;2.30;99.90;;;;;;4954976;29;20072;-70
2022/01/06 02:56:48;;;;;;;18.00;3.35;;;2.30;99.90;;;;;;4938480;29;20027;-71
2022/01/06 02:59:15;;;;;;;9.75;3.10;;;2.30;99.90;;;;;;4954505;28;20400;-72
2022/01/06 03:01:43;;;;;;;9.25;2.83;;;2.30;99.90;;;;;;4954274;29;20540;-72
2022/01/06 03:04:09;;;;;;;9.30;3.25;;;2.30;99.90;;;;;;4938559;29;20478;-72
2022/01/06 03:06:35;;;;;;;12.85;2.85;;;2.30;99.90;;;;;;4955010;29;20031;-71
2022/01/06 03:09:01;;;;;;;9.70;2.85;;;2.30;99.90;;;;;;4954003;29;20426;-72
2022/01/06 03:11:27;;;;;;;8.57;2.47;;;2.40;99.90;;;;;;4953545;29;20114;-70
2022/01/06 03:13:53;;;;;;;8.00;3.25;;;2.30;99.90;;;;;;4954360;28;20142;-72
2022/01/06 03:16:19;;;;;;;7.80;2.40;;;2.40;99.90;;;;;;4954833;29;20031;-71
2022/01/06 03:18:45;;;;;;;14.23;2.92;;;2.30;99.90;;;;;;4953939;29;20043;-71
2022/01/06 03:21:11;;;;;;;7.38;2.47;;;2.30;99.90;;;;;;4955388;29;20039;-72
2022/01/06 03:23:38;;;;;;;8.15;2.38;;;2.30;99.90;;;;;;4954613;29;20034;-73
2022/01/06 03:26:03;;;;;;;9.00;2.60;;;2.30;99.90;;;;;;4955371;29;20481;-73
2022/01/06 03:28:29;;;;;;;6.47;2.40;;;2.30;99.90;;;;;;4954391;29;20034;-71
2022/01/06 03:30:55;;;;;;;5.70;2.45;;;2.40;99.90;;;;;;4955558;29;20034;-72
2022/01/06 03:33:20;;;;;;;10.77;2.88;;;2.40;99.90;;;;;;4955130;29;20035;-72
2022/01/06 03:35:46;;;;;;;8.05;2.50;;;2.40;99.90;;;;;;4954678;29;20500;-72
2022/01/06 03:38:12;;;;;;;7.18;2.45;;;2.40;99.90;;;;;;4955095;29;20417;-72
2022/01/06 03:40:39;;;;;;;9.88;2.70;;;2.50;99.90;;;;;;4954301;29;20122;-71
2022/01/06 03:43:05;;;;;;;12.10;2.80;;;2.40;99.90;;;;;;4954699;29;20082;-71
2022/01/06 03:45:32;;;;;;;9.55;3.80;;;2.40;99.90;;;;;;4954126;29;20064;-71
2022/01/06 03:47:58;;;;;;;12.90;3.05;;;2.30;99.90;;;;;;4954880;29;20023;-71
2022/01/06 03:50:24;;;;;;;10.75;3.17;;;2.40;99.90;;;;;;4953970;29;20039;-70
2022/01/06 03:52:50;;;;;;;10.38;3.25;;;2.40;99.90;;;;;;4954960;29;20038;-71
2022/01/06 03:55:18;;;;;;;10.50;2.60;;;2.40;99.90;;;;;;4954831;29;20035;-71
2022/01/06 03:57:44;;;;;;;10.57;2.67;;;2.40;99.90;;;;;;4936800;29;20594;-71
2022/01/06 04:00:12;;;;;;;6.97;2.50;;;2.40;99.90;;;;;;4954881;29;20490;-72
2022/01/06 04:02:39;;;;;;;5.47;3.00;;;2.40;99.90;;;;;;4952955;29;20070;-71
2022/01/06 04:05:05;;;;;;;9.73;3.50;;;2.30;99.90;;;;;;4954480;29;20031;-72
2022/01/06 04:07:32;;;;;;;9.10;3.42;;;2.30;99.90;;;;;;4953595;29;20114;-71
2022/01/06 04:09:58;;;;;;;9.88;3.15;;;2.30;99.90;;;;;;4954302;28;20031;-71
2022/01/06 04:12:24;;;;;;;7.80;3.42;;;2.30;99.90;;;;;;4952893;29;20110;-70
2022/01/06 04:14:50;;;;;;;9.60;3.50;;;2.30;99.90;;;;;;4954122;28;20130;-70
2022/01/06 04:17:16;;;;;;;8.15;3.10;;;2.30;99.90;;;;;;4954337;29;20536;-71
2022/01/06 04:19:42;;;;;;;8.93;2.90;;;2.20;99.90;;;;;;4953440;29;20035;-71
2022/01/06 04:22:07;;;;;;;7.38;3.35;;;2.20;99.90;;;;;;4953920;29;20091;-71
2022/01/06 04:24:34;;;;;;;7.30;2.70;;;2.20;99.90;;;;;;4953404;29;20473;-71
2022/01/06 04:27:00;;;;;;;5.97;2.53;;;2.20;99.90;;;;;;4954181;29;20346;-71
2022/01/06 04:29:26;;;;;;;7.05;2.38;;;2.30;99.90;;;;;;4953528;29;20035;-70
2022/01/06 04:31:53;;;;;;;4.97;2.25;;;2.30;99.90;;;;;;4954384;29;20031;-71
2022/01/06 04:34:18;;;;;;;8.57;2.60;;;2.30;99.90;;;;;;4953899;29;20065;-71
2022/01/06 04:36:49;;;;;;;7.97;2.50;;;2.30;99.90;;;;;;4953547;29;20680;-71
2022/01/06 04:39:15;;;;;;;11.45;2.88;;;2.30;99.90;;;;;;4953785;29;20043;-71
2022/01/06 04:41:41;;;;;;;4.10;2.38;;;2.30;99.90;;;;;;4936253;29;20365;-71
2022/01/06 04:44:06;;;;;;;7.50;2.92;;;2.30;99.90;;;;;;4953772;29;20023;-71
2022/01/06 04:46:32;;;;;;;6.18;2.60;;;2.30;99.90;;;;;;4952861;29;20035;-71
2022/01/06 04:48:58;;;;;;;9.10;3.20;;;2.30;99.90;;;;;;4954001;29;20039;-70
2022/01/06 04:51:23;;;;;;;8.55;2.85;;;2.30;99.90;;;;;;4953975;29;20472;-70
2022/01/06 04:53:49;;;;;;;11.23;2.97;;;2.30;99.90;;;;;;4952512;29;20127;-71
2022/01/06 04:56:14;;;;;;;8.20;2.90;;;2.30;99.90;;;;;;4953820;29;20031;-71
2022/01/06 04:58:40;;;;;;;5.13;2.60;;;2.30;99.90;;;;;;4953156;29;20388;-71
2022/01/06 05:01:06;;;;;;;7.60;2.70;;;2.30;99.90;;;;;;4954030;29;20046;-71
2022/01/06 05:03:31;;;;;;;6.47;2.60;;;2.40;99.90;;;;;;4952109;29;20039;-71
2022/01/06 05:05:57;;;;;;;5.72;2.60;;;2.40;99.90;;;;;;4953633;29;20055;-71
2022/01/06 05:08:23;;;;;;;6.13;2.78;;;2.40;99.90;;;;;;4953167;29;20038;-72
2022/01/06 05:10:48;;;;;;;12.20;3.13;;;2.40;99.90;;;;;;4952790;29;20039;-71
2022/01/06 05:13:14;;;;;;;4.70;2.60;;;2.30;99.90;;;;;;4954980;28;20496;-71
2022/01/06 05:15:39;;;;;;;6.40;2.53;;;2.40;99.90;;;;;;4972174;28;20432;-71
2022/01/06 05:18:05;;;;;;;10.65;3.20;;;2.40;99.90;;;;;;4973125;28;20031;-71
2022/01/06 05:20:31;;;;;;;13.93;2.90;;;2.40;99.90;;;;;;4956877;28;20033;-70
2022/01/06 05:22:57;;;;;;;8.40;2.53;;;2.40;99.90;;;;;;4975125;28;20054;-71
2022/01/06 05:25:28;;;;;;;13.20;3.30;;;2.40;99.90;;;;;;4976900;28;20031;-71
2022/01/06 05:27:54;;;;;;;14.52;3.28;;;2.40;99.90;;;;;;4976289;28;20035;-71
2022/01/06 05:30:21;;;;;;;8.70;3.28;;;2.40;99.90;;;;;;4976931;28;20361;-71
2022/01/06 05:32:46;;;;;;;10.68;3.10;;;2.40;99.90;;;;;;4975862;28;20064;-70
2022/01/06 05:35:12;;;;;;;13.10;3.72;;;2.30;99.90;;;;;;4976328;28;20391;-71
2022/01/06 05:37:38;;;;;;;9.57;2.60;;;2.30;99.90;;;;;;4975906;28;20118;-71
2022/01/06 05:40:05;;;;;;;11.45;4.10;;;2.30;99.90;;;;;;4976237;28;20035;-71
2022/01/06 05:42:30;;;;;;;6.30;2.33;;;2.30;99.90;;;;;;4975829;28;20089;-69
2022/01/06 05:44:56;;;;;;;5.65;2.97;;;2.30;99.90;;;;;;4975091;28;20027;-72
2022/01/06 05:47:21;;;;;;;10.95;2.75;;;2.30;99.90;;;;;;4975788;28;20031;-70
2022/01/06 05:49:47;;;;;;;7.65;3.00;;;2.30;99.90;;;;;;4974805;28;20039;-71
2022/01/06 05:52:13;;;;;;;13.18;3.75;;;2.30;99.90;;;;;;4976299;28;20361;-70
2022/01/06 05:54:39;;;;;;;6.05;2.92;;;2.30;99.90;;;;;;4975614;28;20082;-69
2022/01/06 05:57:06;;;;;;;8.07;3.25;;;2.40;99.90;;;;;;4976476;28;20094;-70
2022/01/06 05:59:32;;;;;;;11.07;3.53;;;2.40;99.90;;;;;;4975103;28;20113;-69
2022/01/06 06:01:58;;;;;;;8.00;2.92;;;2.50;99.90;;;;;;4975881;28;20453;-70
2022/01/06 06:04:24;;;;;;;8.27;3.28;;;2.50;99.90;;;;;;4976132;28;20031;-70
2022/01/06 06:06:50;;;;;;;6.03;2.78;;;2.50;99.90;;;;;;4975341;28;20029;-69
2022/01/06 06:09:16;;;;;;;6.80;2.65;;;2.60;99.90;;;;;;4975778;28;20109;-70
2022/01/06 06:11:41;;;;;;;10.00;3.08;;;2.60;99.90;;;;;;4957777;28;20522;-69
2022/01/06 06:14:07;;;;;;;8.02;2.75;;;2.50;99.90;;;;;;4975333;28;20078;-70
2022/01/06 06:16:33;;;;;;;10.15;2.97;;;2.50;99.90;;;;;;4974988;28;20069;-69
2022/01/06 06:18:59;;;;;;;8.93;2.70;;;2.50;99.90;;;;;;4958119;28;20074;-70
2022/01/06 06:21:25;;;;;;;9.48;3.28;;;2.50;99.90;;;;;;4975131;28;20069;-70
2022/01/06 06:23:51;;;;;;;7.50;2.75;;;2.50;99.90;;;;;;4966276;28;20067;-70
2022/01/06 06:26:17;;;;;;;9.27;2.67;;;2.40;99.90;;;;;;4958114;28;20045;-70
2022/01/06 06:28:43;;;;;;;10.57;3.25;;;2.40;99.90;;;;;;4974757;28;20037;-70
2022/01/06 06:31:08;;;;;;;14.50;3.83;;;2.40;99.90;;;;;;4975758;28;20031;-70
2022/01/06 06:33:34;;;;;;;7.65;2.92;;;2.40;99.90;;;;;;4973356;28;20041;-69
2022/01/06 06:36:00;;;;;;;8.13;2.75;;;2.40;99.90;;;;;;4975179;28;20031;-70
2022/01/06 06:38:26;;;;;;;7.20;3.00;;;2.40;99.90;;;;;;4975633;28;20027;-70
2022/01/06 06:40:51;;;;;;;9.40;3.20;;;2.40;99.90;;;;;;4974683;28;20034;-70
2022/01/06 06:43:17;;;;;;;7.22;3.60;;;2.40;99.90;;;;;;4975304;28;20037;-70
2022/01/06 06:45:43;;;;;;;9.25;3.22;;;2.30;99.90;;;;;;4974528;28;20077;-70
2022/01/06 06:48:10;;;;;;;10.65;3.10;;;2.30;99.90;;;;;;4974271;28;20027;-71
2022/01/06 06:50:35;;;;;;;5.50;2.83;;;2.30;99.90;;;;;;4973979;28;20066;-71
2022/01/06 06:53:02;;;;;;;7.75;2.80;;;2.30;99.90;;;;;;4974964;28;20058;-71
2022/01/06 06:55:28;;;;;;;9.73;3.33;;;2.30;99.90;;;;;;4957499;28;20034;-70
2022/01/06 06:57:54;;;;;;;10.75;3.05;;;2.30;99.90;;;;;;4974377;28;20117;-71
2022/01/06 07:00:20;;;;;;;9.80;2.72;;;2.40;99.90;;;;;;4974595;28;20173;-71
2022/01/06 07:02:45;;;;;;;10.13;2.63;;;2.50;99.90;;;;;;4974071;28;20031;-71
2022/01/06 07:05:12;;;;;;;11.00;3.05;;;2.60;99.90;;;;;;4974422;28;20027;-70
2022/01/06 07:07:38;;;;;;;8.77;2.83;;;2.70;99.90;;;;;;4972859;28;20031;-70
2022/01/06 07:10:04;;;;;;;9.05;2.80;;;2.60;99.90;;;;;;4973539;28;20047;-69
2022/01/06 07:12:31;;;;;;;12.40;3.20;;;2.60;99.90;;;;;;4972672;28;20110;-68
2022/01/06 07:14:57;;;;;;;10.50;3.13;;;2.60;99.90;;;;;;4967751;28;20055;-70
2022/01/06 07:17:23;;;;;;;12.80;2.92;;;2.50;99.90;;;;;;4973872;28;20049;-72
2022/01/06 07:19:49;;;;;;;13.63;3.47;;;2.60;99.90;;;;;;4972115;28;20030;-72
2022/01/06 07:22:14;;;;;;;9.13;2.70;;;2.60;99.90;;;;;;4973639;28;20026;-72
2022/01/06 07:24:40;;;;;;;8.77;3.00;;;2.60;99.90;;;;;;4954682;28;20031;-72
2022/01/06 07:27:06;;;;;;;11.93;2.97;;;2.60;99.90;;;;;;4970500;28;20469;-72
2022/01/06 07:29:32;;;;;;;11.50;3.35;;;2.50;99.90;;;;;;4972468;28;20126;-71
2022/01/06 07:31:57;;;;;;;10.50;3.05;;;2.50;99.90;;;;;;4973307;28;20054;-72
2022/01/06 07:34:23;;;;;;;11.10;3.08;;;2.40;99.90;;;;;;4973317;28;20031;-72
2022/01/06 07:36:49;;;;;;;12.25;2.92;;;2.40;99.90;;;;;;4972945;28;20027;-72
2022/01/06 07:39:14;;;;;;;7.95;2.75;;;2.40;99.90;;;;;;4973332;28;20069;-73
2022/01/06 07:41:40;;;;;;;9.70;2.80;;;2.40;99.90;;;;;;4972830;28;20042;-73
2022/01/06 07:44:07;;;;;;;9.18;2.90;;;2.40;99.90;;;;;;4974187;28;20055;-73
2022/01/06 07:46:37;;;;;;;11.13;2.97;;;2.40;99.90;;;;;;4955226;28;20796;-70
2022/01/06 07:49:03;;;;;;;13.88;2.97;;;2.40;99.90;;;;;;4974407;28;20042;-73
2022/01/06 07:51:30;;;;;;;14.43;3.67;;;2.40;99.90;;;;;;4973730;28;20030;-70
2022/01/06 07:53:58;;;;;;;11.38;2.88;;;2.40;99.90;;;;;;4973337;28;20058;-72
2022/01/06 07:56:24;;;;;;;14.63;3.05;;;2.40;99.90;;;;;;4973701;28;20031;-72
2022/01/06 07:58:50;;;;;;;13.20;3.38;;;2.30;99.90;;;;;;4973227;28;20089;-72
2022/01/06 08:01:16;;;;;;;8.85;3.10;;;2.30;99.90;;;;;;4972742;28;20031;-72
2022/01/06 08:03:42;;;;;;;9.82;3.08;;;2.20;99.90;;;;;;4972592;28;20117;-71
2022/01/06 08:06:08;;;;;;;11.77;3.25;;;2.20;99.90;;;;;;4972283;28;20162;-73
2022/01/06 08:08:34;;;;;;;8.10;3.00;;;2.30;99.90;;;;;;4953676;28;20089;-71
2022/01/06 08:11:00;;;;;;;12.93;3.60;;;2.20;99.90;;;;;;4973569;28;20034;-72
2022/01/06 08:13:25;;;;;;;8.45;3.05;;;2.20;99.90;;;;;;4973334;28;20046;-72
2022/01/06 08:15:51;;;;;;;10.20;3.22;;;2.10;99.90;;;;;;4971517;28;20050;-73
2022/01/06 08:18:17;;;;;;;16.80;4.25;;;2.10;99.90;;;;;;4974349;28;20053;-72
2022/01/06 08:20:42;;;;;;;11.02;3.67;;;2.00;99.90;;;;;;4974141;28;20121;-72
2022/01/06 08:23:08;;;;;;;14.75;3.97;;;2.00;99.90;;;;;;4955378;28;20377;-73
2022/01/06 08:25:35;;;;;;;15.70;3.63;;;2.10;99.90;;;;;;4972457;28;20039;-71
2022/01/06 08:28:01;;;;;;;13.20;3.67;;;2.30;99.90;;;;;;4972968;28;20429;-73
2022/01/06 08:30:27;;;;;;;6.38;3.10;;;2.30;99.90;;;;;;4973094;28;20098;-72
2022/01/06 08:32:55;;;;;;;10.13;3.00;;;2.30;99.90;;;;;;4971467;28;20031;-74
2022/01/06 08:35:23;;;;;;;8.88;4.10;;;2.30;99.90;;;;;;4968066;28;20019;-72
2022/01/06 08:37:49;;;;;;;6.93;3.35;;;2.30;99.90;;;;;;4975101;28;20117;-72
2022/01/06 08:40:15;;;;;;;14.15;3.67;;;2.40;99.90;;;;;;4973413;28;20034;-77
2022/01/06 08:42:41;;;;;;;7.72;3.15;;;2.40;99.90;;;;;;4972204;28;20082;-74
2022/01/06 08:45:07;;;;;;;10.52;3.47;;;2.40;99.90;;;;;;4972451;28;20042;-73
2022/01/06 08:47:33;;;;;;;13.23;3.50;;;2.40;99.90;;;;;;4972045;28;20042;-71
2022/01/06 08:49:59;;;;;;;17.27;3.53;;;2.40;99.90;;;;;;4972582;28;20037;-73
2022/01/06 08:52:25;;;;;;;14.10;3.90;;;2.50;99.90;;;;;;4972884;28;20468;-72
2022/01/06 08:54:50;;;;;;;10.20;3.22;;;2.50;99.90;;;;;;4971775;28;20741;-76
2022/01/06 08:57:16;;;;;;;13.63;3.30;;;2.60;99.90;;;;;;4972262;28;20026;-73
2022/01/06 08:59:42;;;;;;;12.27;4.65;;;2.60;99.90;;;;;;4971714;28;20046;-73
2022/01/06 09:02:10;;;;;;;15.65;3.80;;;2.70;99.90;;;;;;4974627;28;20030;-74
2022/01/06 09:04:36;;;;;;;13.00;5.80;;;2.80;99.90;;;;;;4972777;28;20030;-72
2022/01/06 09:07:03;;;;;;;11.30;2.90;;;2.80;99.90;;;;;;4972659;28;20030;-72
2022/01/06 09:09:29;;;;;;;9.32;3.30;;;2.90;99.90;;;;;;4954094;28;20035;-74
2022/01/06 09:11:55;;;;;;;13.50;3.30;;;3.00;99.90;;;;;;4954418;28;20023;-73
2022/01/06 09:14:22;;;;;;;11.77;2.95;;;3.10;99.90;;;;;;4972152;28;20067;-72
2022/01/06 09:16:49;;;;;;;11.20;3.70;;;3.30;99.90;;;;;;4971323;28;20035;-71
2022/01/06 09:19:15;;;;;;;7.80;3.08;;;3.40;99.90;;;;;;4972545;28;20441;-71
2022/01/06 09:21:41;;;;;;;9.13;3.40;;;3.40;99.90;;;;;;4971647;28;20110;-71
2022/01/06 09:24:07;;;;;;;11.77;3.22;;;3.50;99.90;;;;;;4972518;28;20066;-75
2022/01/06 09:26:36;;;;;;;11.43;3.47;;;3.50;99.90;;;;;;4971937;28;20063;-69
2022/01/06 09:29:05;;;;;;;13.07;2.97;;;3.50;99.90;;;;;;4972373;28;20395;-72
2022/01/06 09:31:31;;;;;;;12.02;3.67;;;3.50;99.90;;;;;;4972001;28;20077;-72
2022/01/06 09:33:59;;;;;;;13.23;2.72;;;3.60;99.90;;;;;;4971478;28;20034;-72
2022/01/06 09:36:27;;;;;;;10.85;3.15;;;3.60;99.90;;;;;;4972293;28;20018;-73
2022/01/06 09:38:57;;;;;;;12.50;3.20;;;3.80;99.90;;;;;;4971517;28;20047;-73
2022/01/06 09:41:23;;;;;;;11.00;2.97;;;3.90;99.90;;;;;;4955044;28;20031;-74
2022/01/06 09:43:54;;;;;;;12.35;3.55;;;3.90;99.90;;;;;;4971939;28;20118;-75
2022/01/06 09:46:20;;;;;;;7.50;3.10;;;4.00;99.90;;;;;;4954547;28;20031;-76
2022/01/06 09:48:47;;;;;;;10.07;2.85;;;4.00;99.90;;;;;;4971810;28;20038;-78
2022/01/06 09:51:14;;;;;;;8.48;3.03;;;4.10;99.90;;;;;;4971378;28;20026;-74
2022/01/06 09:53:39;;;;;;;10.20;3.30;;;4.10;99.90;;;;;;4971296;28;20090;-74
2022/01/06 09:56:06;;;;;;;9.23;3.15;;;4.20;99.90;;;;;;4971897;28;20126;-73
2022/01/06 09:58:32;;;;;;;13.25;2.90;;;4.30;99.90;;;;;;4972167;28;20480;-74
2022/01/06 10:00:58;;;;;;;14.05;4.13;;;4.40;99.90;;;;;;4971355;28;20025;-71
2022/01/06 10:03:37;;;;;;;12.95;4.15;;;4.40;99.90;;;;;;4972418;28;20030;-78
2022/01/06 10:06:34;;;;;;;8.85;2.55;;;4.30;99.90;;;;;;4972225;28;20361;-73
2022/01/06 10:09:04;;;;;;;12.40;2.35;;;4.30;99.90;;;;;;4973200;28;20055;-73
2022/01/06 10:11:34;;;;;;;5.97;2.65;;;4.20;99.90;;;;;;4975732;28;20027;-74
2022/01/06 10:14:10;;;;;;;9.43;2.47;;;4.10;99.90;;;;;;4961529;28;20056;-71
2022/01/06 10:16:40;;;;;;;6.18;2.15;;;4.10;99.90;;;;;;4956230;29;20039;-70
2022/01/06 10:19:11;;;;;;;9.45;3.13;;;4.00;99.90;;;;;;4956290;29;20445;-71
2022/01/06 10:21:48;;;;;;;9.88;2.75;;;3.90;99.90;;;;;;4956221;29;20032;-71
2022/01/06 10:24:19;;;;;;;11.80;2.33;;;4.00;99.90;;;;;;4956689;29;20059;-72
2022/01/06 10:26:57;;;;;;;9.07;2.42;;;3.90;99.90;;;;;;4956724;29;20499;-72
2022/01/06 10:29:27;;;;;;;11.70;2.70;;;3.90;99.90;;;;;;4955907;29;20035;-70
2022/01/06 10:32:03;;;;;;;15.00;2.85;;;3.90;99.90;;;;;;4949320;29;20024;-69
2022/01/06 10:34:33;;;;;;;5.65;2.33;;;3.90;99.90;;;;;;4955245;29;20039;-70
2022/01/06 10:37:00;;;;;;;13.48;2.67;;;4.00;99.90;;;;;;4955194;29;20036;-69
2022/01/06 10:39:27;;;;;;;12.40;2.58;;;4.00;99.90;;;;;;4955847;29;20034;-69
2022/01/06 10:41:52;;;;;;;11.90;3.53;;;4.10;99.90;;;;;;4949605;28;20035;-69
2022/01/06 10:44:18;;;;;;;10.30;2.25;;;4.10;99.90;;;;;;4957841;29;20381;-70
2022/01/06 10:46:45;;;;;;;9.48;3.20;;;4.10;99.90;;;;;;4955782;29;20039;-69
2022/01/06 10:49:12;;;;;;;11.48;2.95;;;4.10;99.90;;;;;;4955709;29;20035;-69
2022/01/06 10:51:49;;;;;;;8.50;2.47;;;4.10;99.90;;;;;;4955375;29;20093;-68
2022/01/06 10:54:23;;;;;;;13.70;2.90;;;4.10;99.90;;;;;;4955643;29;20030;-69
2022/01/06 10:56:59;;;;;;;10.13;2.65;;;4.10;99.90;;;;;;4954107;29;20027;-69
2022/01/06 10:59:27;;;;;;;10.32;2.22;;;4.20;99.90;;;;;;4954941;29;20334;-70
2022/01/06 11:01:53;;;;;;;11.43;2.65;;;4.20;99.90;;;;;;4954053;29;20023;-70
2022/01/06 11:04:19;;;;;;;8.98;2.08;;;4.50;99.90;;;;;;4954922;29;20034;-69
2022/01/06 11:06:45;;;;;;;15.10;2.17;;;4.60;99.90;;;;;;4953338;29;20479;-69
2022/01/06 11:09:11;;;;;;;9.95;2.47;;;4.70;99.90;;;;;;4954967;29;20035;-69
2022/01/06 11:12:26;;;;;;;12.40;3.20;;;4.60;99.90;;;;;;4967031;28;20058;-69
2022/01/06 11:14:31;;;;;;;12.32;2.97;;;4.60;99.90;;;;;;4955894;28;20051;-68
2022/01/06 11:16:57;;;;;;;10.35;2.40;;;4.60;99.90;;;;;;4954099;29;20036;-68
2022/01/06 11:19:25;;;;;;;8.70;2.20;;;4.60;99.90;;;;;;4953499;28;20448;-69
2022/01/06 11:21:51;;;;;;;10.52;2.60;;;4.60;99.90;;;;;;4954407;29;20028;-69
2022/01/06 11:24:20;;;;;;;10.02;2.28;;;4.60;99.90;;;;;;4954297;29;20441;-68
2022/01/06 11:27:06;;;;;;;12.95;2.58;;;4.60;99.90;;;;;;4952339;29;20484;-71
2022/01/06 11:29:42;;;;;;;10.27;2.20;;;4.60;99.90;;;;;;4954495;29;20035;-69
2022/01/06 11:32:21;;;;;;;13.48;2.30;;;4.60;99.90;;;;;;4955093;29;20031;-82
2022/01/06 11:34:50;;;;;;;9.18;2.13;;;4.50;99.90;;;;;;4952912;29;20031;-69
2022/01/06 11:37:16;;;;;;;10.85;1.77;;;4.40;99.90;;;;;;4954897;29;20039;-74
2022/01/06 11:39:43;;;;;;;14.65;2.53;;;4.30;99.90;;;;;;4955004;29;20571;-70
2022/01/06 11:42:17;;;;;;;14.23;2.40;;;4.30;99.90;;;;;;4952689;28;20035;-70
2022/01/06 11:44:54;;;;;;;11.77;3.35;;;4.40;99.90;;;;;;4953403;29;20045;-67
2022/01/06 11:47:38;;;;;;;13.95;2.50;;;4.40;99.90;;;;;;4954212;29;20027;-68
2022/01/06 11:50:19;;;;;;;7.30;2.30;;;4.50;99.90;;;;;;4935034;29;20047;-67
2022/01/06 11:52:52;;;;;;;12.07;3.03;;;4.60;99.90;;;;;;4935138;29;20087;-68
2022/01/06 11:55:19;;;;;;;23.50;3.33;;;4.70;99.90;;;;;;4936048;29;20023;-76
2022/01/06 11:57:45;;;;;;;12.32;2.40;;;4.90;99.90;;;;;;4949205;29;20401;-81
2022/01/06 12:00:21;;;;;;;10.50;2.28;;;5.00;99.90;;;;;;4953473;29;20035;-75
2022/01/06 12:03:00;;;;;;;15.20;2.20;;;5.10;99.90;;;;;;4953674;29;20469;-75
2022/01/06 12:05:27;;;;;;;6.93;1.40;;;5.00;99.90;;;;;;4954810;29;20031;-80
2022/01/06 12:07:53;;;;;;;10.93;1.80;;;4.70;99.90;;;;;;4953811;29;20031;-69
2022/01/06 12:10:20;;;;;;;6.00;1.67;;;4.60;99.90;;;;;;4953577;29;20044;-71
2022/01/06 12:12:50;;;;;;;15.35;2.03;;;4.50;99.90;;;;;;4953270;29;20034;-74
2022/01/06 12:15:18;;;;;;;10.73;2.28;;;4.50;99.90;;;;;;4954693;28;20406;-71
2022/01/06 12:17:54;;;;;;;8.38;1.90;;;4.40;99.90;;;;;;4953794;29;20034;-72
2022/01/06 12:20:23;;;;;;;13.52;2.70;;;4.40;99.90;;;;;;4950445;29;20043;-71
2022/01/06 12:22:49;;;;;;;6.68;1.83;;;4.30;99.90;;;;;;4953499;29;20114;-71
2022/01/06 12:25:15;;;;;;;10.68;2.17;;;4.30;99.90;;;;;;4950002;28;20125;-70
2022/01/06 12:27:48;;;;;;;11.98;2.30;;;4.30;99.90;;;;;;4954083;29;20392;-69
2022/01/06 12:30:16;;;;;;;12.52;2.53;;;4.40;99.90;;;;;;4950103;28;20038;-69
2022/01/06 12:32:41;;;;;;;9.55;2.60;;;4.40;99.90;;;;;;4912771;28;20041;-70
2022/01/06 12:35:07;;;;;;;7.10;1.90;;;4.40;99.90;;;;;;4950989;29;20547;-71
2022/01/06 12:37:33;;;;;;;7.05;1.85;;;4.40;99.90;;;;;;4954958;29;20216;-70
2022/01/06 12:40:00;;;;;;;13.63;2.30;;;4.40;99.90;;;;;;4953400;29;20533;-70
2022/01/06 12:42:25;;;;;;;9.13;2.20;;;4.30;99.90;;;;;;4953993;29;20027;-71
2022/01/06 12:44:52;;;;;;;11.23;2.53;;;4.30;99.90;;;;;;4952832;29;20035;-71
2022/01/06 12:47:18;;;;;;;14.18;2.40;;;4.30;99.90;;;;;;4954029;29;20031;-71
2022/01/06 12:49:44;;;;;;;8.15;2.42;;;4.30;99.90;;;;;;4953225;29;20046;-71
2022/01/06 12:52:09;;;;;;;9.45;2.38;;;4.30;99.90;;;;;;4954189;29;20031;-70
2022/01/06 12:54:37;;;;;;;10.23;3.20;;;4.30;99.90;;;;;;4953663;29;20450;-70
2022/01/06 12:57:06;;;;;;;12.95;2.53;;;4.20;99.90;;;;;;4952826;29;20127;-70
2022/01/06 12:59:37;;;;;;;13.15;2.38;;;4.10;99.90;;;;;;4953538;29;20041;-69